Terminal Aerodrome Forecast
Issued by NWS Charleston, WV

Current Version | Previous Version | Text Only | Print | Product List | Glossary Off
Versions: 1 2 3 4 5 6 7 8 9 10 11 12 13 14 15 16 17 18 19 20 21 22 23 24 25 26 27 28

279
FTUS41 KRLX 151500 AAA
TAFBKW
TAF AMD
KBKW 151500Z 1515/1612 03004KT 1/4SM FG OVC002
     FM152000 VRB02KT 4SM BR OVC004
     FM160300 VRB03KT 1SM -RA OVC003
     FM160900 15003KT 1/4SM FG OVC001=

USA.gov is the U.S. government's official web portal to all federal, state and local government web resources and services.